KSJN/SJN METAR and TAF weather

Enter ICAO airport designator
Station Type Date Time Source
KSJN METAR 2020/07/14 06:54 UTC NOAA

KSJN 140654Z AUTO 20011KT 10SM CLR 23/09 A3017 RMK AO2 SLP100 T02330089 403560211


Station Type Date Time Source
KSJN Decoded METAR 2020/07/14 06:54 UTC NOAA

ST JOHNS INDUSTRIAL AIRPRK, AZ, United States (KSJN) 34-31N 109-23W 1745M
Jul 14, 2020 - 02:54 AM EDT / 2020.07.14 0654 UTC
Wind: from the SSW (200 degrees) at 13 MPH (11 KT):0
Visibility: 10 mile(s):0
Sky conditions: clear
Temperature: 73.9 F (23.3 C)
Dew Point: 48.0 F (8.9 C)
Relative Humidity: 39%
Pressure (altimeter): 30.17 in. Hg (1021 hPa)
ob: KSJN 140654Z AUTO 20011KT 10SM CLR 23/09 A3017 RMK AO2 SLP100 T02330089 403560211
cycle: 7

Station Type Date Time Source
KSJN TAF UTC NOAA

Error!

Example: see airport list